Time;durP1;ratioP1;P1;durP2;ratioP2;P2;SDS_P1;SDS_P2;PMS_P1;PMS_P2;Temp;Humidity;BMP_temperature;BMP_pressure;BME280_temperature;BME280_humidity;BME280_pressure;Samples;Min_cycle;Max_cycle;Signal;HPM_P1;HPM_P2
2022/09/22 00:01:45;;;;;;;33.42;29.92;;;;;;;7.49;98.41;102433.28;5026809;28;20099;-68
2022/09/22 00:04:12;;;;;;;35.13;31.58;;;;;;;7.47;98.97;102435.34;5026460;28;20029;-68
2022/09/22 00:06:40;;;;;;;33.10;29.80;;;;;;;7.46;98.76;102435.50;5024998;28;20029;-68
2022/09/22 00:09:09;;;;;;;33.33;29.80;;;;;;;7.46;99.08;102430.91;5026169;28;20030;-68
2022/09/22 00:11:39;;;;;;;32.10;28.90;;;;;;;7.45;99.04;102425.59;5025597;28;20026;-68
2022/09/22 00:14:04;;;;;;;30.30;27.30;;;;;;;7.46;99.07;102430.03;5026819;28;20039;-68
2022/09/22 00:16:35;;;;;;;30.48;27.58;;;;;;;7.40;98.91;102433.44;5026159;28;20116;-68
2022/09/22 00:19:01;;;;;;;30.80;27.60;;;;;;;7.36;98.84;102424.75;5026826;28;20029;-68
2022/09/22 00:21:26;;;;;;;30.23;27.23;;;;;;;7.35;98.64;102431.25;5025784;28;20030;-68
2022/09/22 00:23:53;;;;;;;32.25;29.05;;;;;;;7.33;99.13;102433.28;5026892;28;20030;-68
2022/09/22 00:26:20;;;;;;;31.13;27.85;;;;;;;7.33;99.02;102424.22;5029357;28;20461;-68
2022/09/22 00:28:47;;;;;;;28.33;25.65;;;;;;;7.36;98.99;102423.91;5033832;28;20033;-67
2022/09/22 00:31:24;;;;;;;28.00;25.30;;;;;;;7.35;98.99;102428.50;5014330;28;20029;-68
2022/09/22 00:33:50;;;;;;;28.90;25.90;;;;;;;7.26;98.67;102429.53;5033302;28;20372;-69
2022/09/22 00:36:17;;;;;;;28.92;25.92;;;;;;;7.20;99.52;102430.22;5033203;28;20017;-67
2022/09/22 00:38:44;;;;;;;33.45;29.17;;;;;;;7.20;99.56;102431.06;5034355;28;20973;-68
2022/09/22 00:41:17;;;;;;;30.98;27.85;;;;;;;7.16;99.76;102420.66;5030146;28;20075;-68
2022/09/22 00:43:47;;;;;;;29.90;27.02;;;;;;;7.11;99.41;102425.75;5032610;28;20449;-68
2022/09/22 00:46:24;;;;;;;32.70;29.23;;;;;;;7.08;99.46;102426.09;5031632;28;20030;-68
2022/09/22 00:49:00;;;;;;;31.08;27.77;;;;;;;7.07;99.91;102425.25;5032904;28;20029;-68
2022/09/22 00:51:31;;;;;;;31.77;28.63;;;;;;;7.10;99.86;102418.59;5033668;28;20026;-68
2022/09/22 00:53:58;;;;;;;31.38;27.35;;;;;;;7.08;99.69;102415.16;5033163;28;20084;-68
2022/09/22 00:56:31;;;;;;;30.48;26.92;;;;;;;7.08;99.24;102416.00;5030266;28;20475;-68
2022/09/22 00:59:03;;;;;;;28.05;25.05;;;;;;;7.04;98.73;102411.91;5031920;28;20029;-68
2022/09/22 01:01:28;;;;;;;29.92;27.05;;;;;;;7.06;99.19;102412.59;5032862;28;20084;-68
2022/09/22 01:03:55;;;;;;;31.63;28.35;;;;;;;7.05;99.14;102399.13;5032613;28;20416;-68
2022/09/22 01:06:25;;;;;;;31.58;28.17;;;;;;;7.04;99.56;102400.97;5031155;28;20765;-68
2022/09/22 01:08:51;;;;;;;29.25;26.52;;;;;;;7.03;99.36;102399.28;5032730;28;20466;-68
2022/09/22 01:11:19;;;;;;;30.05;27.05;;;;;;;6.97;99.08;102397.22;5031984;28;20394;-67
2022/09/22 01:14:03;;;;;;;31.17;27.88;;;;;;;6.98;99.66;102397.03;5033042;28;20045;-68
2022/09/22 01:16:47;;;;;;;30.77;27.67;;;;;;;6.96;99.60;102401.00;5033693;28;20041;-68
2022/09/22 01:19:43;;;;;;;32.05;28.65;;;;;;;6.96;99.86;102390.06;5033008;28;20044;-68
2022/09/22 01:22:39;;;;;;;30.35;27.35;;;;;;;6.95;100.00;102385.63;5032934;28;20084;-68
2022/09/22 01:25:49;;;;;;;31.50;28.15;;;;;;;6.97;99.74;102387.16;5032374;28;20037;-67
2022/09/22 01:28:52;;;;;;;27.95;25.20;;;;;;;6.96;99.83;102385.44;5034364;28;20044;-67
2022/09/22 01:31:28;;;;;;;29.67;26.63;;;;;;;6.89;99.06;102384.41;5017667;28;20037;-68
2022/09/22 01:34:23;;;;;;;30.08;26.95;;;;;;;6.90;99.61;102380.66;5032769;28;20108;-68
2022/09/22 01:36:55;;;;;;;28.52;25.55;;;;;;;6.83;99.01;102378.75;5030310;28;20606;-69
2022/09/22 01:39:30;;;;;;;29.77;26.73;;;;;;;6.78;99.34;102382.00;5028576;28;20109;-68
2022/09/22 01:42:04;;;;;;;27.98;25.35;;;;;;;6.74;99.38;102380.63;5029842;28;20055;-68
2022/09/22 01:44:44;;;;;;;29.13;26.23;;;;;;;6.75;100.00;102374.16;5029928;28;20021;-68
2022/09/22 01:47:18;;;;;;;27.52;24.83;;;;;;;6.71;99.63;102378.25;5029880;28;20396;-68
2022/09/22 01:49:50;;;;;;;28.23;25.35;;;;;;;6.69;99.72;102370.22;5029896;28;20033;-68
2022/09/22 01:52:20;;;;;;;28.33;25.73;;;;;;;6.73;100.00;102373.47;5012372;28;20353;-68
2022/09/22 01:54:54;;;;;;;30.13;27.23;;;;;;;6.71;99.94;102376.38;5030340;28;20361;-67
2022/09/22 01:57:29;;;;;;;29.35;26.35;;;;;;;6.72;100.00;102363.56;5028924;28;20484;-68
2022/09/22 02:00:03;;;;;;;31.05;27.85;;;;;;;6.72;100.00;102363.56;5028956;28;20124;-68
2022/09/22 02:02:36;;;;;;;26.23;23.73;;;;;;;6.71;99.58;102362.72;5029485;28;20084;-67
2022/09/22 02:05:05;;;;;;;27.58;24.80;;;;;;;6.66;99.49;102354.16;5028938;28;20499;-68
2022/09/22 02:07:40;;;;;;;29.90;26.90;;;;;;;6.69;100.00;102350.22;5029576;28;20037;-68
2022/09/22 02:10:11;;;;;;;27.75;24.85;;;;;;;6.66;100.00;102354.16;5027470;28;20037;-68
2022/09/22 02:12:37;;;;;;;26.50;23.80;;;;;;;6.64;99.83;102353.50;5009841;28;20050;-68
2022/09/22 02:15:58;;;;;;;27.85;24.83;;;;;;;6.62;99.53;102355.53;5022013;28;20057;-68
2022/09/22 02:18:00;;;;;;;26.10;23.50;;;;;;;6.59;99.63;102350.41;5028796;28;20771;-68
2022/09/22 02:20:26;;;;;;;24.52;22.20;;;;;;;6.59;99.95;102352.25;5028464;28;20029;-68
2022/09/22 02:22:52;;;;;;;26.45;23.85;;;;;;;6.53;99.70;102342.88;5028858;28;20371;-68
2022/09/22 02:25:18;;;;;;;28.20;24.88;;;;;;;6.53;99.96;102347.47;5029610;28;20034;-67
2022/09/22 02:27:46;;;;;;;26.25;23.65;;;;;;;6.50;100.00;102341.34;5029821;28;20034;-67
2022/09/22 02:30:12;;;;;;;26.85;24.17;;;;;;;6.49;100.00;102341.53;5027698;28;20082;-67
2022/09/22 02:32:42;;;;;;;26.50;23.25;;;;;;;6.46;100.00;102341.84;5028628;28;20041;-67
2022/09/22 02:35:08;;;;;;;28.48;25.25;;;;;;;6.44;100.00;102343.91;5028804;28;20128;-68
2022/09/22 02:37:49;;;;;;;29.05;25.85;;;;;;;6.48;100.00;102337.06;5028450;28;20033;-67
2022/09/22 02:40:31;;;;;;;27.13;24.30;;;;;;;6.46;100.00;102339.13;5009144;28;20121;-67
2022/09/22 02:43:13;;;;;;;27.95;25.17;;;;;;;6.42;100.00;102332.28;5009365;28;20037;-68
2022/09/22 02:45:42;;;;;;;30.05;25.48;;;;;;;6.39;100.00;102330.75;5010053;28;20038;-68
2022/09/22 02:48:20;;;;;;;27.48;24.67;;;;;;;6.41;100.00;102327.84;5009061;28;20069;-68
2022/09/22 02:50:45;;;;;;;29.85;26.75;;;;;;;6.39;100.00;102321.72;5028009;28;20044;-68
2022/09/22 02:53:13;;;;;;;28.75;25.92;;;;;;;6.37;100.00;102321.88;5027951;28;20037;-68
2022/09/22 02:55:39;;;;;;;;;;;;;;;6.48;100.00;102321.53;5028847;28;20043;-68
2022/09/22 02:58:04;;;;;;;30.13;26.92;;;;;;;6.37;99.94;102321.00;5027830;28;20007;-68
2022/09/22 03:00:30;;;;;;;30.67;27.65;;;;;;;6.37;100.00;102323.75;5029385;28;20036;-67
2022/09/22 03:02:55;;;;;;;29.05;25.42;;;;;;;6.33;100.00;102316.91;5011383;28;20072;-68
2022/09/22 03:05:20;;;;;;;28.63;25.55;;;;;;;6.33;100.00;102322.34;5028627;28;20068;-67
2022/09/22 03:07:45;;;;;;;28.83;25.83;;;;;;;6.30;100.00;102312.66;5027879;28;20053;-68
2022/09/22 03:10:11;;;;;;;29.35;26.33;;;;;;;6.27;100.00;102320.31;5027534;28;20045;-68
2022/09/22 03:12:42;;;;;;;30.15;27.02;;;;;;;6.25;100.00;102320.47;5027525;28;20053;-68
2022/09/22 03:15:13;;;;;;;29.77;26.58;;;;;;;6.23;100.00;102323.38;5029246;28;20378;-67
2022/09/22 03:17:40;;;;;;;30.55;26.40;;;;;;;6.21;100.00;102314.50;5026987;28;20065;-67
2022/09/22 03:20:08;;;;;;;29.80;26.50;;;;;;;6.23;100.00;102314.31;5027549;28;20510;-67
2022/09/22 03:22:33;;;;;;;28.60;25.55;;;;;;;6.21;100.00;102319.09;5028163;28;20115;-67
2022/09/22 03:24:58;;;;;;;27.70;24.80;;;;;;;6.19;100.00;102310.25;5015218;28;20468;-68
2022/09/22 03:27:24;;;;;;;27.20;24.25;;;;;;;6.18;100.00;102306.66;5008808;28;20026;-67
2022/09/22 03:29:49;;;;;;;26.95;24.15;;;;;;;6.18;100.00;102305.78;5020389;28;20031;-69
2022/09/22 03:32:14;;;;;;;27.35;24.50;;;;;;;6.16;100.00;102305.94;5029102;28;20040;-68
2022/09/22 03:34:40;;;;;;;26.88;24.10;;;;;;;6.20;100.00;102307.34;5010210;28;20671;-68
2022/09/22 03:37:05;;;;;;;26.38;23.67;;;;;;;6.22;100.00;102301.69;5024433;28;20041;-67
2022/09/22 03:39:30;;;;;;;25.65;22.88;;;;;;;6.20;100.00;102295.56;5027460;28;20029;-67
2022/09/22 03:41:56;;;;;;;25.80;23.08;;;;;;;6.18;100.00;102298.47;5026982;28;20041;-67
2022/09/22 03:44:21;;;;;;;27.08;24.02;;;;;;;6.17;100.00;102296.75;5028719;28;20079;-68
2022/09/22 03:46:47;;;;;;;23.52;21.15;;;;;;;6.15;100.00;102303.41;5028885;28;20029;-67
2022/09/22 03:49:12;;;;;;;23.63;21.13;;;;;;;6.14;100.00;102305.28;5027506;28;20068;-67
2022/09/22 03:51:37;;;;;;;25.13;22.40;;;;;;;6.09;99.94;102298.63;5024870;28;20112;-67
2022/09/22 03:54:03;;;;;;;26.17;22.05;;;;;;;6.08;100.00;102305.91;5026603;28;20116;-67
2022/09/22 03:56:28;;;;;;;24.58;22.08;;;;;;;6.08;100.00;102303.19;5028007;28;20636;-68
2022/09/22 03:58:53;;;;;;;25.10;22.20;;;;;;;6.06;100.00;102294.31;5027872;28;20112;-67
2022/09/22 04:01:18;;;;;;;23.23;20.92;;;;;;;6.00;100.00;102294.16;5027028;28;20490;-68
2022/09/22 04:03:44;;;;;;;25.00;22.35;;;;;;;5.96;100.00;102297.19;5028961;28;20083;-67
2022/09/22 04:06:09;;;;;;;24.90;22.35;;;;;;;5.92;100.00;102293.06;5017389;28;20032;-68
2022/09/22 04:08:35;;;;;;;25.30;22.60;;;;;;;5.93;100.00;102300.25;5025987;28;20038;-67
2022/09/22 04:11:02;;;;;;;25.05;22.65;;;;;;;5.92;100.00;102297.69;5027067;28;20032;-67
2022/09/22 04:13:27;;;;;;;24.90;22.15;;;;;;;5.94;100.00;102292.94;5026883;28;20440;-68
2022/09/22 04:15:52;;;;;;;24.63;22.10;;;;;;;5.92;100.00;102287.63;5028138;28;20033;-68
2022/09/22 04:18:18;;;;;;;25.45;22.08;;;;;;;5.91;100.00;102285.03;5026598;28;20033;-68
2022/09/22 04:20:44;;;;;;;24.65;22.25;;;;;;;5.92;100.00;102286.78;5025230;28;20083;-67
2022/09/22 04:23:11;;;;;;;25.25;22.48;;;;;;;5.90;100.00;102283.34;5026409;28;20380;-67
2022/09/22 04:25:36;;;;;;;24.40;21.88;;;;;;;5.90;100.00;102277.88;5027230;28;20495;-67
2022/09/22 04:28:03;;;;;;;26.23;23.45;;;;;;;5.87;100.00;102276.31;5026684;28;20034;-67
2022/09/22 04:30:28;;;;;;;24.17;21.67;;;;;;;5.88;100.00;102282.63;5027231;28;20088;-67
2022/09/22 04:32:53;;;;;;;24.25;21.80;;;;;;;5.85;100.00;102275.66;5027203;28;20464;-67
2022/09/22 04:35:19;;;;;;;24.65;22.05;;;;;;;5.84;100.00;102275.81;5026498;28;20037;-68
2022/09/22 04:37:44;;;;;;;25.40;22.73;;;;;;;5.85;100.00;102280.25;5027479;28;20088;-67
2022/09/22 04:40:11;;;;;;;26.92;24.00;;;;;;;5.84;100.00;102284.84;5024490;28;20042;-67
2022/09/22 04:42:37;;;;;;;29.13;24.48;;;;;;;5.83;100.00;102287.72;5027958;28;20037;-67
2022/09/22 04:45:05;;;;;;;27.67;24.88;;;;;;;5.83;100.00;102277.69;5026868;28;20116;-67
2022/09/22 04:47:31;;;;;;;;;;;;;;;5.96;100.00;102279.97;5028587;28;20025;-68
2022/09/22 04:49:56;;;;;;;26.95;24.00;;;;;;;5.88;100.00;102274.44;5027346;28;20000;-67
2022/09/22 04:52:22;;;;;;;27.10;24.40;;;;;;;5.88;100.00;102279.91;5018031;28;20112;-67
2022/09/22 04:54:47;;;;;;;28.73;25.05;;;;;;;5.87;100.00;102278.19;5026442;28;20033;-67
2022/09/22 04:57:13;;;;;;;28.55;25.75;;;;;;;5.88;100.00;102279.91;5026684;28;20443;-67
2022/09/22 04:59:38;;;;;;;28.13;25.27;;;;;;;5.87;100.00;102283.66;5026847;28;20092;-68
2022/09/22 05:02:03;;;;;;;28.90;25.75;;;;;;;5.85;100.00;102281.09;5026734;28;20036;-67
2022/09/22 05:04:29;;;;;;;27.13;24.42;;;;;;;5.84;100.00;102276.66;5026067;28;20033;-68
2022/09/22 05:06:54;;;;;;;27.70;24.80;;;;;;;5.84;100.00;102278.56;5022534;28;20064;-67
2022/09/22 05:09:20;;;;;;;28.52;23.95;;;;;;;5.83;100.00;102287.72;5025771;28;20034;-68
2022/09/22 05:11:47;;;;;;;28.67;24.88;;;;;;;5.82;100.00;102284.16;5024943;28;20064;-68
2022/09/22 05:14:14;;;;;;;27.17;24.30;;;;;;;5.82;100.00;102291.47;5031699;28;20025;-67
2022/09/22 05:16:40;;;;;;;28.58;25.60;;;;;;;5.81;100.00;102284.31;5031251;28;20109;-67
2022/09/22 05:19:06;;;;;;;24.42;22.08;;;;;;;5.76;100.00;102276.63;5030270;28;20018;-67
2022/09/22 05:21:31;;;;;;;24.65;22.05;;;;;;;5.77;100.00;102285.66;5028533;28;20044;-67
2022/09/22 05:23:56;;;;;;;23.67;20.90;;;;;;;5.77;100.00;102291.09;5028531;28;20108;-68
2022/09/22 05:26:22;;;;;;;23.02;20.63;;;;;;;5.75;100.00;102290.44;5030845;28;20022;-67
2022/09/22 05:28:49;;;;;;;25.88;23.15;;;;;;;5.76;100.00;102292.13;5031897;28;20550;-67
2022/09/22 05:31:15;;;;;;;25.45;22.88;;;;;;;5.75;100.00;102288.56;5030508;28;20022;-67
2022/09/22 05:33:40;;;;;;;24.88;21.65;;;;;;;5.78;100.00;102284.63;5012480;28;20024;-68
2022/09/22 05:36:05;;;;;;;23.45;21.05;;;;;;;5.77;100.00;102289.22;5029761;28;20053;-68
2022/09/22 05:38:31;;;;;;;22.95;20.55;;;;;;;5.75;100.00;102284.97;5027253;28;20033;-68
2022/09/22 05:40:56;;;;;;;23.90;21.40;;;;;;;5.76;100.00;102286.69;5029769;28;20453;-68
2022/09/22 05:43:21;;;;;;;24.80;22.23;;;;;;;5.79;100.00;102292.66;5028134;28;20025;-67
2022/09/22 05:45:47;;;;;;;23.90;20.90;;;;;;;5.78;100.00;102288.25;5029487;28;20029;-67
2022/09/22 05:48:12;;;;;;;23.08;20.60;;;;;;;5.77;100.00;102286.50;5030670;28;20021;-67
2022/09/22 05:50:37;;;;;;;23.65;21.25;;;;;;;5.76;100.00;102292.13;5029338;28;20038;-67
2022/09/22 05:53:05;;;;;;;23.65;21.15;;;;;;;5.76;100.00;102300.31;5029374;28;20033;-67
2022/09/22 05:55:31;;;;;;;27.60;24.80;;;;;;;5.75;100.00;102291.28;5029641;28;20661;-67
2022/09/22 05:57:57;;;;;;;25.90;23.27;;;;;;;5.80;100.00;102307.16;5029435;28;20064;-67
2022/09/22 06:00:22;;;;;;;27.30;23.90;;;;;;;5.81;100.00;102300.69;5027424;28;20028;-67
2022/09/22 06:02:47;;;;;;;27.10;24.20;;;;;;;5.87;100.00;102302.75;5028460;28;20033;-68
2022/09/22 06:05:13;;;;;;;27.23;24.50;;;;;;;5.95;100.00;102308.28;5028136;28;20025;-68
2022/09/22 06:07:38;;;;;;;29.65;25.45;;;;;;;6.01;100.00;102304.03;5030265;28;20081;-68
2022/09/22 06:10:04;;;;;;;31.85;27.08;;;;;;;6.06;100.00;102298.94;5026799;28;20022;-67
2022/09/22 06:12:30;;;;;;;30.80;25.65;;;;;;;6.12;100.00;102299.13;5011444;28;20475;-67
2022/09/22 06:14:55;;;;;;;31.52;27.23;;;;;;;6.18;100.00;102303.03;5029247;28;20029;-67
2022/09/22 06:17:22;;;;;;;32.10;28.67;;;;;;;6.24;100.00;102306.00;5030447;28;20036;-67
2022/09/22 06:19:49;;;;;;;31.55;28.23;;;;;;;6.31;100.00;102305.31;5029224;28;20025;-67
2022/09/22 06:22:15;;;;;;;33.75;30.27;;;;;;;6.37;100.00;102308.22;5029386;28;20073;-67
2022/09/22 06:24:40;;;;;;;35.75;31.95;;;;;;;6.44;100.00;102302.97;5028288;28;20034;-67
2022/09/22 06:27:06;;;;;;;34.13;30.60;;;;;;;6.51;100.00;102301.25;5021133;28;20038;-67
2022/09/22 06:29:31;;;;;;;34.90;29.85;;;;;;;6.57;100.00;102295.13;5024942;28;20029;-67
2022/09/22 06:31:56;;;;;;;33.95;30.17;;;;;;;6.64;100.00;102298.00;5016199;28;20525;-67
2022/09/22 06:34:22;;;;;;;33.22;29.73;;;;;;;6.72;100.00;102298.03;5027346;28;20029;-67
2022/09/22 06:36:48;;;;;;;34.03;30.42;;;;;;;6.76;100.00;102292.06;5028266;28;20040;-67
2022/09/22 06:39:13;;;;;;;34.40;30.90;;;;;;;6.86;100.00;102285.59;5024416;28;20361;-67
2022/09/22 06:41:39;;;;;;;33.95;29.95;;;;;;;6.91;100.00;102288.66;5023183;28;20029;-67
2022/09/22 06:44:06;;;;;;;33.58;29.58;;;;;;;6.94;100.00;102288.28;5026483;28;20112;-67
2022/09/22 06:46:33;;;;;;;32.45;29.02;;;;;;;6.98;100.00;102286.94;5029002;28;20119;-67
2022/09/22 06:48:59;;;;;;;33.60;30.27;;;;;;;7.07;100.00;102287.78;5029991;28;20033;-67
2022/09/22 06:51:26;;;;;;;35.22;31.10;;;;;;;7.13;100.00;102287.94;5033497;28;20038;-67
2022/09/22 06:53:53;;;;;;;32.55;29.08;;;;;;;7.21;100.00;102284.38;5027236;28;20025;-67
2022/09/22 06:56:19;;;;;;;36.28;32.42;;;;;;;7.29;100.00;102296.09;5029276;28;20029;-68
2022/09/22 06:58:45;;;;;;;33.40;29.80;;;;;;;7.35;100.00;102296.44;5024447;28;20518;-67
2022/09/22 07:01:11;;;;;;;34.75;30.80;;;;;;;7.41;100.00;102295.78;5025595;28;20487;-67
2022/09/22 07:03:40;;;;;;;38.35;32.95;;;;;;;7.50;100.00;102284.66;5029100;28;20044;-67
2022/09/22 07:06:07;;;;;;;38.58;34.22;;;;;;;7.58;100.00;102285.63;5027640;28;20040;-67
2022/09/22 07:08:34;;;;;;;35.53;31.95;;;;;;;7.66;100.00;102288.34;5024779;28;20029;-67
2022/09/22 07:11:02;;;;;;;39.53;35.42;;;;;;;7.74;100.00;102280.94;5017869;28;20053;-67
2022/09/22 07:13:29;;;;;;;37.38;33.13;;;;;;;7.82;100.00;102281.97;5015401;28;20160;-67
2022/09/22 07:16:06;;;;;;;38.70;34.80;;;;;;;7.91;100.00;102286.38;5011730;28;20454;-66
2022/09/22 07:18:32;;;;;;;39.28;35.17;;;;;;;7.98;100.00;102282.72;5011914;28;20124;-67
2022/09/22 07:21:26;;;;;;;40.55;36.25;;;;;;;8.09;100.00;102286.09;5012207;28;20385;-68
2022/09/22 07:23:54;;;;;;;41.58;37.28;;;;;;;8.18;100.00;102285.88;5010865;28;20037;-67
2022/09/22 07:26:22;;;;;;;;;;;;;;;8.26;100.00;102285.84;5013005;28;20025;-67
2022/09/22 07:28:51;;;;;;;41.15;36.83;;;;;;;8.33;100.00;102280.50;5011940;28;19917;-67
2022/09/22 07:31:17;;;;;;;41.35;37.13;;;;;;;8.37;100.00;102276.41;5020015;28;20037;-67
2022/09/22 07:33:44;;;;;;;38.13;34.13;;;;;;;8.46;100.00;102275.28;5009069;28;20768;-67
2022/09/22 07:36:17;;;;;;;40.72;36.42;;;;;;;8.54;100.00;102277.13;5010175;28;20551;-67
2022/09/22 07:38:47;;;;;;;41.33;37.20;;;;;;;8.66;100.00;102275.66;5014359;28;20033;-67
2022/09/22 07:41:18;;;;;;;40.30;36.40;;;;;;;8.75;100.00;102271.81;5012078;28;20032;-67
2022/09/22 07:43:44;;;;;;;40.00;36.00;;;;;;;8.82;100.00;102270.06;5013005;28;20034;-67
2022/09/22 07:46:11;;;;;;;39.25;35.38;;;;;;;8.94;100.00;102277.84;5016471;28;20029;-66
2022/09/22 07:48:36;;;;;;;37.70;33.90;;;;;;;9.07;100.00;102270.69;5015563;28;20021;-67
2022/09/22 07:51:08;;;;;;;39.90;35.65;;;;;;;9.22;100.00;102275.31;5013742;28;20399;-66
2022/09/22 07:53:34;;;;;;;40.38;36.15;;;;;;;9.30;100.00;102276.09;5021251;28;20022;-67
2022/09/22 07:56:12;;;;;;;38.67;34.53;;;;;;;9.40;99.66;102277.72;5014411;28;20033;-68
2022/09/22 07:58:49;;;;;;;38.03;33.95;;;;;;;9.49;99.55;102282.09;5012418;28;20028;-67
2022/09/22 08:01:15;;;;;;;37.95;34.05;;;;;;;9.60;99.62;102281.59;5024664;28;20033;-67
2022/09/22 08:03:41;;;;;;;35.55;31.92;;;;;;;9.68;98.61;102273.28;5015896;28;20342;-67
2022/09/22 08:06:11;;;;;;;35.03;31.23;;;;;;;9.79;96.51;102277.44;5013999;28;20040;-67
2022/09/22 08:08:42;;;;;;;32.25;29.02;;;;;;;9.88;96.24;102268.94;5001613;28;20052;-68
2022/09/22 08:11:13;;;;;;;36.17;31.10;;;;;;;9.99;97.69;102270.31;5006306;28;20030;-68
2022/09/22 08:13:48;;;;;;;35.47;31.73;;;;;;;10.13;96.90;102269.41;5009469;28;20080;-68
2022/09/22 08:16:16;;;;;;;35.28;31.20;;;;;;;10.24;95.42;102267.25;5019181;28;20033;-68
2022/09/22 08:18:41;;;;;;;34.45;30.48;;;;;;;10.35;94.91;102266.75;5023619;28;20404;-68
2022/09/22 08:21:07;;;;;;;34.30;30.25;;;;;;;10.48;94.68;102268.78;5018762;28;20060;-67
2022/09/22 08:23:33;;;;;;;32.25;28.83;;;;;;;10.62;91.80;102268.72;5021953;28;20040;-68
2022/09/22 08:26:04;;;;;;;34.05;29.15;;;;;;;10.77;91.23;102254.91;5027103;28;20048;-68
2022/09/22 08:28:30;;;;;;;36.50;30.98;;;;;;;10.86;93.44;102253.72;5027741;28;20038;-67
2022/09/22 08:30:55;;;;;;;33.38;29.80;;;;;;;10.99;92.26;102246.63;5024519;28;20029;-68
2022/09/22 08:33:20;;;;;;;34.97;31.35;;;;;;;11.14;91.89;102256.47;5026202;28;20025;-68
2022/09/22 08:35:53;;;;;;;35.55;28.42;;;;;;;11.28;91.10;102254.69;5027368;28;20024;-68
2022/09/22 08:38:20;;;;;;;31.08;27.20;;;;;;;11.40;88.33;102253.09;5024493;28;20029;-69
2022/09/22 08:40:58;;;;;;;33.45;28.38;;;;;;;11.54;88.00;102244.91;5026757;28;20380;-67
2022/09/22 08:43:23;;;;;;;37.03;29.38;;;;;;;11.64;88.86;102240.72;5021268;28;20500;-68
2022/09/22 08:45:49;;;;;;;32.22;28.55;;;;;;;11.80;88.30;102247.78;5013629;28;20037;-69
2022/09/22 08:53:56;;;;;;;30.95;27.70;;;;;;;13.66;81.50;102248.84;5023048;28;20454;-68
2022/09/22 08:56:31;;;;;;;30.38;24.77;;;;;;;16.02;75.49;102245.56;5015309;28;20029;-73
2022/09/22 08:59:11;;;;;;;24.95;20.67;;;;;;;18.62;67.34;102243.41;5021756;28;20116;-70
2022/09/22 09:01:53;;;;;;;22.80;18.67;;;;;;;20.92;55.01;102247.38;5008159;28;20030;-72
2022/09/22 09:04:41;;;;;;;23.13;18.58;;;;;;;22.08;50.52;102251.19;5011057;28;20388;-75
2022/09/22 09:07:20;;;;;;;23.27;18.58;;;;;;;22.75;48.23;102253.06;5014004;28;20029;-65
2022/09/22 09:09:53;;;;;;;20.23;17.90;;;;;;;23.94;46.11;102254.66;5011668;28;20048;-65
2022/09/22 09:12:31;;;;;;;21.92;18.23;;;;;;;24.78;40.49;102258.38;5009686;28;20168;-67
2022/09/22 09:15:41;;;;;;;19.23;16.30;;;;;;;25.45;45.78;102255.88;5009398;28;21488;-66
2022/09/22 09:18:14;;;;;;;22.48;16.85;;;;;;;26.08;38.81;102259.38;4999955;28;20400;-65
2022/09/22 09:20:47;;;;;;;20.02;17.92;;;;;;;26.82;38.59;102258.91;5016282;28;20092;-68
2022/09/22 09:23:19;;;;;;;20.17;16.70;;;;;;;27.19;36.92;102257.19;4994921;28;20048;-67
2022/09/22 09:25:55;;;;;;;20.38;17.20;;;;;;;27.71;35.21;102249.44;5018189;28;20381;-73
2022/09/22 09:28:41;;;;;;;19.38;17.27;;;;;;;27.41;35.35;102249.69;5018366;28;20025;-70
2022/09/22 09:31:40;;;;;;;18.02;15.90;;;;;;;28.14;36.45;102247.97;5012613;28;20029;-76
2022/09/22 09:34:10;;;;;;;21.45;16.38;;;;;;;28.42;33.51;102242.28;5004515;28;20045;-72
2022/09/22 09:36:40;;;;;;;17.02;14.80;;;;;;;28.92;31.07;102245.84;5004759;28;21034;-77
2022/09/22 09:39:13;;;;;;;17.58;14.30;;;;;;;29.16;33.95;102244.72;5005144;28;20223;-75
2022/09/22 09:41:40;;;;;;;14.27;12.10;;;;;;;29.57;30.03;102243.63;5012269;28;20413;-71
2022/09/22 09:44:05;;;;;;;15.23;12.02;;;;;;;30.25;29.14;102242.19;5009065;28;20579;-77
2022/09/22 09:46:55;;;;;;;13.55;12.05;;;;;;;29.82;29.74;102244.91;5013739;28;20120;-72
2022/09/22 09:49:22;;;;;;;16.42;12.02;;;;;;;29.79;27.99;102240.72;5011731;28;20047;-68
2022/09/22 09:52:00;;;;;;;13.35;10.90;;;;;;;29.79;29.30;102237.88;5010322;28;20064;-71
2022/09/22 09:54:26;;;;;;;12.48;10.70;;;;;;;29.55;27.18;102238.28;5013267;28;20084;-72
2022/09/22 09:57:03;;;;;;;13.70;11.13;;;;;;;30.07;29.80;102237.63;5007037;28;20053;-71
2022/09/22 10:02:16;;;;;;;14.07;10.88;;;;;;;30.08;27.73;102234.47;5007675;28;20052;-74
2022/09/22 10:04:49;;;;;;;14.75;10.63;;;;;;;30.32;27.24;102236.88;5012339;28;20041;-74
2022/09/22 10:07:17;;;;;;;10.98;9.35;;;;;;;29.56;26.15;102230.66;5016253;28;20947;-71
2022/09/22 10:09:49;;;;;;;13.43;9.90;;;;;;;29.46;29.70;102226.91;5011807;28;20033;-74
2022/09/22 10:12:25;;;;;;;14.20;10.05;;;;;;;30.29;28.57;102229.03;5011488;28;20054;-74
2022/09/22 10:14:56;;;;;;;11.43;9.80;;;;;;;29.41;27.53;102229.03;4993150;28;20029;-74
2022/09/22 10:17:51;;;;;;;12.18;9.15;;;;;;;29.95;29.16;102218.44;5015915;28;20033;-71
2022/09/22 10:20:16;;;;;;;11.45;8.50;;;;;;;30.01;26.60;102211.47;4992348;28;20064;-72
2022/09/22 10:22:42;;;;;;;11.23;8.10;;;;;;;30.37;27.77;102213.22;5024603;28;20451;-72
2022/09/22 10:25:26;;;;;;;11.52;8.45;;;;;;;29.71;27.04;102221.72;5026767;28;20299;-68
2022/09/22 10:28:08;;;;;;;10.63;8.27;;;;;;;28.56;27.91;102211.13;5026286;28;20049;-72
2022/09/22 10:30:38;;;;;;;11.00;8.27;;;;;;;28.81;28.72;102209.69;5027547;28;20041;-73
2022/09/22 10:33:19;;;;;;;11.32;7.57;;;;;;;29.56;28.09;102205.16;5026684;28;20022;-71
2022/09/22 10:36:15;;;;;;;10.18;6.93;;;;;;;30.23;28.36;102202.84;5026871;28;20029;-73
2022/09/22 10:38:41;;;;;;;12.63;8.45;;;;;;;29.56;25.25;102205.16;5026825;28;20054;-69
2022/09/22 10:41:16;;;;;;;9.73;6.82;;;;;;;30.19;26.84;102195.34;5024496;28;20021;-74
2022/09/22 10:43:50;;;;;;;9.55;6.88;;;;;;;30.81;26.56;102195.00;5026075;28;20573;-74
2022/09/22 10:46:19;;;;;;;11.00;6.50;;;;;;;30.86;25.49;102188.34;5026391;28;20025;-73
2022/09/22 10:48:53;;;;;;;12.95;6.32;;;;;;;31.31;25.50;102191.56;5024877;28;20087;-73
2022/09/22 10:51:33;;;;;;;9.73;6.47;;;;;;;31.83;22.80;102190.50;5024802;28;20032;-68
2022/09/22 10:54:24;;;;;;;7.50;5.30;;;;;;;32.23;26.06;102179.53;5025388;28;20376;-73
2022/09/22 10:57:08;;;;;;;8.68;5.22;;;;;;;32.21;24.67;102177.03;5026639;28;20152;-73
2022/09/22 10:59:54;;;;;;;8.88;4.43;;;;;;;32.27;24.18;102183.34;5022900;28;20460;-73
2022/09/22 11:02:43;;;;;;;7.70;5.10;;;;;;;31.70;22.95;102181.03;5021238;28;20030;-76
2022/09/22 11:12:15;;;;;;;5.75;3.53;;;;;;;31.36;24.38;102173.53;5012417;28;20438;-73
2022/09/22 11:14:36;;;;;;;5.85;2.88;;;;;;;31.99;25.14;102168.88;5011992;28;20042;-73
2022/09/22 11:17:18;;;;;;;5.47;2.45;;;;;;;31.67;22.29;102176.03;5026530;28;20034;-73
2022/09/22 11:19:58;;;;;;;5.65;3.15;;;;;;;32.09;23.47;102170.44;5026724;28;20025;-77
2022/09/22 11:22:50;;;;;;;5.68;2.72;;;;;;;32.50;21.83;102161.13;5026868;28;20048;-74
2022/09/22 11:25:43;;;;;;;4.57;2.10;;;;;;;32.32;21.89;102166.09;5027132;28;20034;-73
2022/09/22 11:28:50;;;;;;;5.25;2.38;;;;;;;32.18;21.84;102169.19;5022696;28;20077;-77
2022/09/22 11:31:57;;;;;;;6.38;2.83;;;;;;;31.91;21.15;102155.53;5018943;28;20037;-71
2022/09/22 11:34:46;;;;;;;5.38;2.40;;;;;;;31.58;23.08;102161.03;4973286;28;20065;-70
2022/09/22 11:37:39;;;;;;;6.57;2.60;;;;;;;31.14;22.97;102154.72;5020130;28;20114;-73
2022/09/22 11:40:21;;;;;;;5.55;2.20;;;;;;;29.05;23.06;102152.78;5026101;28;20049;-73
2022/09/22 11:43:14;;;;;;;5.28;2.53;;;;;;;27.66;26.94;102151.53;5027124;28;20041;-72
2022/09/22 11:45:46;;;;;;;4.78;2.33;;;;;;;26.09;26.76;102144.75;5025380;28;20116;-72
2022/09/22 11:48:32;;;;;;;6.15;2.55;;;;;;;24.34;30.70;102150.53;5024012;28;20033;-75